»·PEaware :: DAL4775 KSEA-KBOI

DAL4775 :: KSEA-KBOI

FLIGHT INFORMATION

Flight Status: Arrived
Operator:
Delta Air Lines
More flights by this operator :: More flights under this callsign
Pilot: Jerome G. (4242)
Aircraft: BOEING 737-900
(B739)
More flights by this aircraft type
Origin: KSEA Seattle-Tacoma Intl
United States
Destination: KBOI Boise Air Terminal/Gowen
United States
More flights between these airports :: More routes between these airports
Route: SUMMA1 SUMMA J54 BKE DEVLE KYAAN3
File this flight plan on PilotEdge
Remarks: RMK / POWERED BY SIMBRIEF
Altitude:
(Current/Filed)
35,000ft
Speed:
(Current/Filed)
402kts
Departed: 29-Jan-18 10:12 PM
Arrived: 29-Jan-18 11:02 PM
Distance/Time
Traveled:
346nm/0:50
Distance/Time
To Go:
Arrived

Flight Plot

Page will automatically refresh every two minutes.

Flight plan parsing failed; only flown route is shown


Map Options




Map Legend


Flown Route
Filed Route
Departure Airport
Arrival Airport
Navaid (VOR, NDB)
Fix

Horizontal Profiles

Position Reports

Time Latitude Longitude Heading Altitude Ground
Speed
29-Jan-18 21:44 47.439382 -122.298473 80 441ft 0kts
29-Jan-18 21:45 47.439382 -122.298473 80 441ft 0kts
29-Jan-18 21:46 47.439382 -122.298473 80 441ft 0kts
29-Jan-18 21:47 47.439382 -122.298473 80 441ft 0kts
29-Jan-18 21:48 47.439382 -122.298473 80 441ft 0kts
29-Jan-18 21:49 47.439382 -122.298473 80 441ft 0kts
29-Jan-18 21:50 47.439382 -122.298473 80 441ft 0kts
29-Jan-18 21:51 47.439382 -122.298473 80 441ft 0kts
29-Jan-18 21:52 47.439382 -122.298473 80 441ft 0kts
29-Jan-18 21:53 47.439382 -122.298473 80 441ft 0kts
29-Jan-18 21:54 47.439382 -122.298473 80 441ft 0kts
29-Jan-18 21:55 47.439382 -122.298473 80 441ft 0kts
29-Jan-18 21:56 47.439382 -122.298473 80 441ft 0kts
29-Jan-18 21:57 47.439382 -122.298473 80 441ft 0kts
29-Jan-18 21:58 47.439382 -122.298473 80 441ft 0kts
29-Jan-18 21:59 47.439382 -122.298473 80 441ft 0kts
29-Jan-18 22:00 47.439382 -122.298473 80 441ft 0kts
29-Jan-18 22:01 47.439382 -122.298473 80 441ft 0kts
29-Jan-18 22:02 47.439382 -122.298473 80 441ft 0kts
29-Jan-18 22:03 47.439382 -122.298473 80 441ft 0kts
29-Jan-18 22:04 47.439382 -122.298473 80 441ft 0kts
29-Jan-18 22:05 47.439382 -122.298473 80 441ft 0kts
29-Jan-18 22:06 47.439242 -122.299202 57 441ft 2kts
29-Jan-18 22:07 47.438900 -122.299438 350 441ft 0kts
29-Jan-18 22:08 47.438900 -122.299438 350 441ft 0kts
29-Jan-18 22:09 47.438901 -122.299438 350 441ft 0kts
29-Jan-18 22:10 47.438902 -122.299438 350 441ft 0kts
29-Jan-18 22:11 47.438913 -122.299441 350 441ft 2kts
29-Jan-18 22:12 47.439910 -122.303700 268 441ft 18kts
29-Jan-18 22:13 47.440779 -122.306407 2 441ft 22kts
29-Jan-18 22:14 47.448325 -122.306322 1 441ft 27kts
29-Jan-18 22:15 47.456247 -122.306246 0 441ft 31kts
29-Jan-18 22:16 47.463260 -122.306201 356 441ft 1kts
29-Jan-18 22:17 47.463301 -122.307788 182 441ft 7kts
29-Jan-18 22:18 47.434254 -122.307426 181 1776ft 148kts
29-Jan-18 22:19 47.387020 -122.303243 180 4182ft 221kts
29-Jan-18 22:20 47.317206 -122.299720 183 7936ft 261kts
29-Jan-18 22:21 47.242683 -122.301626 191 11778ft 280kts
29-Jan-18 22:22 47.160089 -122.249752 166 14625ft 344kts
29-Jan-18 22:23 47.070158 -122.206953 175 17710ft 356kts
29-Jan-18 22:24 46.971741 -122.160841 175 20266ft 381kts
29-Jan-18 22:25 46.868362 -122.110371 176 22614ft 399kts
29-Jan-18 22:26 46.760996 -122.057917 176 24624ft 415kts
29-Jan-18 22:27 46.649166 -122.001362 168 26228ft 450kts
29-Jan-18 22:28 46.560534 -121.847935 127 27599ft 536kts
29-Jan-18 22:29 46.486992 -121.657944 130 28827ft 545kts
29-Jan-18 22:30 46.409853 -121.465949 129 29876ft 557kts
29-Jan-18 22:31 46.331307 -121.272208 129 31311ft 556kts
29-Jan-18 22:32 46.253638 -121.080224 129 32711ft 552kts
29-Jan-18 22:33 46.175919 -120.889407 129 33942ft 548kts
29-Jan-18 22:34 46.098739 -120.701693 128 34971ft 547kts
29-Jan-18 22:35 46.020579 -120.512945 128 34979ft 546kts
29-Jan-18 22:36 45.942341 -120.325307 128 34983ft 546kts
29-Jan-18 22:37 45.864290 -120.138674 128 34985ft 546kts
29-Jan-18 22:38 45.785785 -119.952981 129 34991ft 545kts
29-Jan-18 22:39 45.706672 -119.767511 129 34993ft 544kts
29-Jan-18 22:40 45.627583 -119.583731 129 34998ft 542kts
29-Jan-18 22:41 45.548325 -119.400915 129 34998ft 541kts
29-Jan-18 22:42 45.469202 -119.217422 129 34998ft 542kts
29-Jan-18 22:43 45.389874 -119.035366 129 34995ft 541kts
29-Jan-18 22:44 45.310257 -118.854113 129 35004ft 541kts
29-Jan-18 22:45 45.230062 -118.672753 129 35009ft 541kts
29-Jan-18 22:46 45.149907 -118.492645 129 35018ft 541kts
29-Jan-18 22:47 45.069559 -118.313221 129 35036ft 539kts
29-Jan-18 22:48 44.988971 -118.133784 129 35050ft 539kts
29-Jan-18 22:49 44.908249 -117.955861 129 35063ft 538kts
29-Jan-18 22:50 44.819069 -117.790719 149 34876ft 513kts
29-Jan-18 22:51 44.702373 -117.682974 158 31830ft 492kts
29-Jan-18 22:52 44.589156 -117.582971 157 29388ft 471kts
29-Jan-18 22:53 44.480768 -117.486397 157 27034ft 451kts
29-Jan-18 22:54 44.377301 -117.394389 157 24769ft 431kts
29-Jan-18 22:55 44.273936 -117.303381 156 23373ft 466kts
29-Jan-18 22:56 44.169424 -117.194415 144 20455ft 467kts
29-Jan-18 22:57 44.077823 -117.073156 144 17272ft 445kts
29-Jan-18 22:58 43.989751 -116.958490 143 14267ft 423kts
29-Jan-18 22:59 43.919238 -116.829962 128 11389ft 403kts
29-Jan-18 23:00 43.864328 -116.715835 129 10739ft 318kts
29-Jan-18 23:01 43.814228 -116.628164 146 10093ft 269kts
29-Jan-18 23:02 43.753902 -116.564198 147 8767ft 271kts
29-Jan-18 23:03 43.695262 -116.502292 145 7286ft 261kts
29-Jan-18 23:04 43.649229 -116.436116 115 6587ft 228kts
29-Jan-18 23:05 43.613076 -116.373334 115 5845ft 195kts
29-Jan-18 23:06 43.591093 -116.310343 134 4811ft 174kts
29-Jan-18 23:07 43.572285 -116.250068 112 2977ft 162kts
29-Jan-18 23:08 43.561241 -116.216743 87 2842ft 11kts
29-Jan-18 23:09 43.564382 -116.216371 358 2842ft 14kts
29-Jan-18 23:10 43.566115 -116.218888 301 2842ft 5kts

Navigation Log

Ident Type
Flight plan parsing failed, navigation log unavailable